Time;durP1;ratioP1;P1;durP2;ratioP2;P2;SDS_P1;SDS_P2;PMS_P1;PMS_P2;Temp;Humidity;BMP_temperature;BMP_pressure;BME280_temperature;BME280_humidity;BME280_pressure;Samples;Min_cycle;Max_cycle;Signal;HPM_P1;HPM_P2
2022/05/16 00:02:15;;;;;;;;;8.00;8.00;;;;;21.73;79.41;100469.28;4872108;29;45501;-85
2022/05/16 00:04:43;;;;;;;;;8.00;8.00;;;;;21.82;79.82;100472.59;4874503;29;44841;-85
2022/05/16 00:07:09;;;;;;;;;7.00;7.00;;;;;21.64;80.36;100477.72;4873547;29;45419;-83
2022/05/16 00:12:59;;;;;;;;;13.33;13.33;;;;;21.73;79.97;100495.44;4872007;29;45417;-85
2022/05/16 00:15:25;;;;;;;;;6.33;6.33;;;;;21.80;81.72;100496.13;4870537;29;45391;-85
2022/05/16 00:17:51;;;;;;;;;7.33;6.67;;;;;21.65;83.58;100475.91;4884373;29;45404;-86
2022/05/16 00:20:17;;;;;;;;;5.67;5.00;;;;;21.47;85.09;100480.13;4870809;29;45869;-86
2022/05/16 00:22:43;;;;;;;;;7.67;6.00;;;;;21.37;86.24;100466.03;4871614;29;47469;-87
2022/05/16 00:25:10;;;;;;;;;5.00;5.00;;;;;21.20;88.33;100449.50;4887868;29;45448;-85
2022/05/16 00:27:36;;;;;;;;;7.00;7.00;;;;;21.13;86.63;100457.84;4885766;29;45424;-85
2022/05/16 00:30:08;;;;;;;;;9.00;7.00;;;;;21.14;88.26;100469.53;4870905;29;45262;-86
2022/05/16 00:32:35;;;;;;;;;7.00;6.33;;;;;21.08;88.92;100472.44;4869549;29;45532;-86
2022/05/16 00:35:00;;;;;;;;;5.00;5.00;;;;;21.01;87.82;100470.91;4884536;29;45433;-86
2022/05/16 00:37:26;;;;;;;;;5.00;5.00;;;;;20.82;90.42;100452.56;4870379;29;45375;-86
2022/05/16 00:39:51;;;;;;;;;5.00;5.00;;;;;20.92;88.63;100480.16;4886793;29;45525;-84
2022/05/16 00:42:19;;;;;;;;;7.00;7.00;;;;;20.88;90.37;100475.81;4871823;29;45454;-86
2022/05/16 00:44:44;;;;;;;;;7.00;6.00;;;;;20.77;91.97;100468.06;4886103;29;45392;-85
2022/05/16 00:47:09;;;;;;;;;7.00;5.00;;;;;20.73;90.85;100469.09;4884863;29;45263;-85
2022/05/16 00:49:38;;;;;;;;;7.00;6.33;;;;;20.68;92.12;100466.53;4876245;29;44806;-85
2022/05/16 00:52:16;;;;;;;;;4.33;4.00;;;;;20.66;93.43;100467.50;4876848;29;45505;-85
2022/05/16 00:54:41;;;;;;;;;4.67;4.67;;;;;20.54;94.27;100461.53;4876699;29;44801;-85
2022/05/16 00:57:17;;;;;;;;;5.00;5.00;;;;;20.58;94.21;100465.94;4892285;29;45033;-85
2022/05/16 01:00:04;;;;;;;;;3.67;3.67;;;;;20.54;94.22;100441.72;4876612;29;45287;-85
2022/05/16 01:05:16;;;;;;;;;7.33;7.00;;;;;20.42;93.74;100443.03;4876940;29;45863;-85
2022/05/16 01:07:44;;;;;;;;;4.00;4.00;;;;;20.42;95.59;100437.63;4876471;29;45525;-84
2022/05/16 01:10:13;;;;;;;;;6.33;5.67;;;;;20.39;94.56;100437.69;4892515;29;45322;-85
2022/05/16 01:12:43;;;;;;;;;7.00;7.00;;;;;20.40;95.56;100431.38;4891190;29;47741;-85
2022/05/16 01:15:14;;;;;;;;;6.00;6.00;;;;;20.38;95.85;100438.66;4878060;29;45482;-85
2022/05/16 01:17:40;;;;;;;;;5.00;5.00;;;;;20.34;96.42;100442.34;4877462;29;45489;-86
2022/05/16 01:20:08;;;;;;;;;6.00;6.00;;;;;20.32;97.06;100428.00;4877170;29;44838;-86
2022/05/16 01:22:41;;;;;;;;;6.67;6.67;;;;;20.27;96.13;100432.69;4874678;29;46765;-85
2022/05/16 01:25:21;;;;;;;;;7.00;5.00;;;;;20.37;96.98;100450.38;4874623;29;45356;-85
2022/05/16 01:27:48;;;;;;;;;5.67;4.67;;;;;20.29;96.75;100456.00;4889019;29;45277;-85
2022/05/16 01:30:18;;;;;;;;;6.00;6.00;;;;;20.32;97.13;100452.31;4876163;29;45386;-85
2022/05/16 01:32:44;;;;;;;;;5.00;5.00;;;;;20.20;97.45;100434.69;4876673;29;46191;-84
2022/05/16 01:35:10;;;;;;;;;6.00;6.00;;;;;20.25;96.34;100450.75;4877066;29;45479;-85
2022/05/16 01:40:20;;;;;;;;;6.67;5.33;;;;;20.21;96.26;100463.44;4878429;29;44851;-85
2022/05/16 01:42:46;;;;;;;;;7.33;6.00;;;;;20.23;96.96;100468.81;4877743;29;45413;-85
2022/05/16 01:45:11;;;;;;;;;4.67;4.00;;;;;20.19;97.36;100458.09;4876788;29;45668;-85
2022/05/16 01:47:36;;;;;;;;;7.33;6.33;;;;;20.21;97.15;100449.06;4890106;29;45054;-85
2022/05/16 01:50:02;;;;;;;;;8.00;7.33;;;;;20.13;96.50;100436.69;4892648;29;45404;-85
2022/05/16 01:52:28;;;;;;;;;3.00;2.67;;;;;20.19;96.72;100454.50;4875524;29;46748;-85
2022/05/16 01:54:53;;;;;;;;;7.33;5.67;;;;;20.17;97.22;100453.69;4875690;29;45714;-85
2022/05/16 01:57:18;;;;;;;;;5.00;5.00;;;;;20.11;97.55;100453.88;4895043;29;45450;-85
2022/05/16 01:59:44;;;;;;;;;5.00;5.00;;;;;20.10;97.13;100468.31;4895550;29;44793;-85
2022/05/16 02:02:09;;;;;;;;;6.33;6.00;;;;;20.08;97.50;100460.25;4894803;29;45390;-85
2022/05/16 02:04:35;;;;;;;;;8.00;8.00;;;;;20.09;97.69;100471.94;4876111;29;45331;-86
2022/05/16 02:07:00;;;;;;;;;10.67;8.33;;;;;20.10;96.61;100484.50;4893134;29;45475;-86
2022/05/16 02:09:26;;;;;;;;;10.00;7.00;;;;;20.11;96.98;100480.88;4894371;29;45780;-86
2022/05/16 02:11:52;;;;;;;;;7.33;6.33;;;;;20.14;96.60;100486.19;4893014;29;45499;-86
2022/05/16 02:14:17;;;;;;;;;7.33;7.33;;;;;20.09;95.46;100461.13;4875035;29;45468;-87
2022/05/16 02:16:43;;;;;;;;;8.00;7.33;;;;;20.19;95.96;100476.13;4876096;29;44871;-86
2022/05/16 02:19:08;;;;;;;;;5.00;5.00;;;;;20.22;94.42;100483.22;4879565;29;44804;-87
2022/05/16 02:27:02;;;;;;;;;7.67;6.33;;;;;20.33;93.82;100483.81;4894994;28;45481;-86
2022/05/16 02:29:27;;;;;;;;;9.33;8.00;;;;;20.35;94.50;100487.34;4894021;29;45325;-86
2022/05/16 02:31:54;;;;;;;;;8.00;8.00;;;;;20.34;94.65;100493.66;4875365;29;46923;-86
2022/05/16 02:34:20;;;;;;;;;5.67;5.67;;;;;20.32;93.01;100495.53;4876872;29;45467;-85
2022/05/16 02:36:45;;;;;;;;;10.33;8.67;;;;;20.31;93.02;100488.38;4875907;29;45382;-85
2022/05/16 02:39:12;;;;;;;;;8.00;8.00;;;;;20.41;93.04;100497.97;4893732;29;45345;-86
2022/05/16 02:41:39;;;;;;;;;10.67;9.33;;;;;20.44;93.51;100506.00;4892442;29;45327;-85
2022/05/16 02:44:04;;;;;;;;;11.67;11.00;;;;;20.41;92.55;100499.78;4876375;29;45424;-85
2022/05/16 02:46:31;;;;;;;;;10.67;10.67;;;;;20.43;92.96;100503.31;4893493;29;45506;-85
2022/05/16 02:48:57;;;;;;;;;13.00;10.33;;;;;20.42;93.14;100507.84;4877257;29;45557;-85
2022/05/16 02:51:22;;;;;;;;;12.33;12.33;;;;;20.47;92.21;100505.00;4893780;29;46808;-85
2022/05/16 02:53:48;;;;;;;;;15.67;12.67;;;;;20.44;92.16;100500.59;4892492;29;45514;-85
2022/05/16 02:56:13;;;;;;;;;12.00;12.00;;;;;20.44;92.51;100492.47;4891330;29;45746;-86
2022/05/16 02:58:40;;;;;;;;;10.33;8.67;;;;;20.62;91.95;100515.34;4891280;29;44804;-86
2022/05/16 03:01:06;;;;;;;;;12.00;10.33;;;;;20.61;91.59;100502.78;4890723;29;46985;-86
2022/05/16 03:03:32;;;;;;;;;11.67;11.67;;;;;20.53;91.63;100492.19;4890823;29;45705;-86
2022/05/16 03:05:58;;;;;;;;;13.00;12.00;;;;;20.60;91.44;100500.13;4892424;29;45364;-86
2022/05/16 03:08:24;;;;;;;;;13.67;12.33;;;;;20.60;91.12;100484.78;4893020;29;45113;-86
2022/05/16 03:10:50;;;;;;;;;14.00;13.33;;;;;20.75;90.58;100513.16;4874734;29;47934;-86
2022/05/16 03:13:15;;;;;;;;;18.00;15.67;;;;;20.71;90.78;100503.38;4889809;29;45411;-86
2022/05/16 03:15:41;;;;;;;;;11.67;11.67;;;;;20.80;90.18;100502.19;4890110;29;45762;-86
2022/05/16 03:18:06;;;;;;;;;17.33;15.00;;;;;20.84;90.42;100510.16;4888918;29;45393;-86
2022/05/16 03:20:32;;;;;;;;;14.67;14.67;;;;;20.82;90.25;100514.72;4891258;29;46724;-86
2022/05/16 03:22:58;;;;;;;;;14.67;13.00;;;;;20.79;90.72;100512.13;4892486;29;45403;-86
2022/05/16 03:25:23;;;;;;;;;14.00;14.00;;;;;20.77;90.46;100520.28;4894238;29;44943;-86
2022/05/16 03:27:49;;;;;;;;;13.67;13.33;;;;;20.77;90.28;100536.50;4893314;29;45537;-86
2022/05/16 03:30:14;;;;;;;;;17.33;17.33;;;;;20.80;90.33;100540.91;4893607;29;46108;-86
2022/05/16 03:32:40;;;;;;;;;14.67;14.67;;;;;20.71;90.66;100514.19;4891187;29;45486;-85
2022/05/16 03:35:07;;;;;;;;;17.00;15.33;;;;;20.73;90.52;100528.53;4889341;29;45077;-86
2022/05/16 03:37:39;;;;;;;;;18.00;18.00;;;;;20.70;90.29;100512.41;4890106;29;45580;-86
2022/05/16 03:42:50;;;;;;;;;19.00;15.67;;;;;20.75;89.71;100524.84;4890497;29;45454;-86
2022/05/16 03:45:16;;;;;;;;;16.33;16.00;;;;;20.73;90.02;100534.81;4888129;29;45460;-86
2022/05/16 03:47:41;;;;;;;;;12.00;12.00;;;;;20.72;89.71;100532.16;4887709;29;45342;-86
2022/05/16 03:50:07;;;;;;;;;19.00;19.00;;;;;20.75;90.70;100549.19;4887016;29;46012;-86
2022/05/16 03:52:33;;;;;;;;;16.33;16.33;;;;;20.58;90.74;100536.19;4887748;29;45417;-86
2022/05/16 03:54:59;;;;;;;;;18.33;18.00;;;;;20.65;90.60;100563.03;4890059;29;45634;-85
2022/05/16 03:57:24;;;;;;;;;19.00;15.67;;;;;20.51;91.02;100550.78;4871954;29;45415;-86
2022/05/16 03:59:50;;;;;;;;;18.33;17.00;;;;;20.35;91.13;100536.84;4890466;29;45147;-85
2022/05/16 04:02:15;;;;;;;;;19.00;19.00;;;;;20.34;91.28;100551.28;4873012;29;45909;-86
2022/05/16 04:04:41;;;;;;;;;16.33;15.67;;;;;20.46;91.37;100579.75;4890655;29;45578;-86
2022/05/16 04:07:07;;;;;;;;;20.33;20.00;;;;;20.45;90.63;100577.97;4889554;29;45414;-86
2022/05/16 04:09:32;;;;;;;;;20.33;18.00;;;;;20.43;91.66;100593.34;4872092;29;46877;-86
2022/05/16 04:11:58;;;;;;;;;20.00;18.67;;;;;20.45;92.18;100599.59;4874665;29;45527;-86
2022/05/16 04:14:23;;;;;;;;;18.67;18.67;;;;;20.37;92.08;100569.22;4877009;29;45441;-86
2022/05/16 04:16:48;;;;;;;;;20.67;18.67;;;;;20.49;92.07;100589.59;4876037;29;45507;-85
2022/05/16 04:19:14;;;;;;;;;16.33;16.33;;;;;20.52;92.19;100595.78;4876047;29;47470;-85
2022/05/16 04:25:04;;;;;;;;;18.33;16.33;;;;;20.54;92.17;100593.03;4897008;29;45560;-85
2022/05/16 04:27:29;;;;;;;;;18.33;18.33;;;;;20.49;91.75;100589.59;4897867;29;45406;-85
2022/05/16 04:29:55;;;;;;;;;18.00;17.67;;;;;20.57;91.50;100604.63;4898338;29;45078;-85
2022/05/16 04:32:21;;;;;;;;;18.00;16.33;;;;;20.57;91.67;100618.13;4881897;29;45587;-85
2022/05/16 04:34:47;;;;;;;;;21.00;18.00;;;;;20.51;91.66;100607.50;4881112;29;45380;-86
2022/05/16 04:37:12;;;;;;;;;19.33;19.33;;;;;20.50;92.04;100611.16;4880532;29;45445;-86
2022/05/16 04:39:38;;;;;;;;;21.33;20.67;;;;;20.54;91.34;100636.25;4881422;29;47654;-86
2022/05/16 04:44:48;;;;;;;;;16.33;16.00;;;;;20.70;90.81;100655.63;4900745;29;45379;-84
2022/05/16 04:47:13;;;;;;;;;19.33;19.33;;;;;20.68;90.89;100650.31;4880584;29;45267;-85
2022/05/16 04:50:18;;;;;;;;;20.33;20.00;;;;;20.80;90.95;100675.19;4880029;29;45471;-85
2022/05/16 04:52:43;;;;;;;;;19.33;19.33;;;;;20.72;90.84;100672.69;4879215;29;44707;-85
2022/05/16 04:55:09;;;;;;;;;21.00;19.00;;;;;20.78;90.55;100689.66;4879550;29;44755;-85
2022/05/16 04:57:35;;;;;;;;;20.33;18.33;;;;;20.81;90.32;100696.78;4878516;29;45443;-85
2022/05/16 05:00:02;;;;;;;;;19.67;19.67;;;;;20.77;90.20;100686.97;4877885;29;46698;-85
2022/05/16 05:02:29;;;;;;;;;19.00;18.67;;;;;20.81;89.17;100699.47;4877459;29;45448;-85
2022/05/16 05:04:55;;;;;;;;;19.00;19.00;;;;;20.82;89.67;100701.22;4879300;29;45486;-85
2022/05/16 05:07:20;;;;;;;;;18.67;18.67;;;;;20.83;89.39;100699.44;4878480;29;45529;-86
2022/05/16 05:15:17;;;;;;;;;24.67;19.33;;;;;20.91;88.71;100717.19;4879422;29;45513;-86
2022/05/16 05:17:42;;;;;;;;;28.33;24.33;;;;;20.90;88.75;100707.28;4878662;29;44952;-86
2022/05/16 05:20:13;;;;;;;;;20.33;19.33;;;;;20.87;88.98;100703.81;4878469;29;47120;-86
2022/05/16 05:22:40;;;;;;;;;24.00;23.33;;;;;20.92;88.52;100707.25;4882082;29;45450;-86
2022/05/16 05:25:07;;;;;;;;;20.00;19.33;;;;;21.00;88.43;100709.75;4881961;29;44786;-86
2022/05/16 05:27:33;;;;;;;;;24.33;20.33;;;;;21.02;87.65;100707.88;4880518;29;45522;-85
2022/05/16 05:29:58;;;;;;;;;21.33;20.33;;;;;21.11;86.99;100711.19;4878406;29;47304;-85
2022/05/16 05:32:24;;;;;;;;;24.33;23.33;;;;;21.16;86.86;100721.88;4879375;29;45715;-85
2022/05/16 05:34:49;;;;;;;;;19.33;19.33;;;;;21.20;86.73;100722.66;4875093;29;45416;-85
2022/05/16 05:37:15;;;;;;;;;24.67;22.00;;;;;21.12;87.10;100710.25;4873000;29;45432;-86
2022/05/16 05:39:40;;;;;;;;;26.00;24.67;;;;;21.13;86.61;100708.47;4873165;29;45258;-86
2022/05/16 05:42:06;;;;;;;;;19.00;18.33;;;;;21.31;86.35;100731.31;4874060;29;45386;-87
2022/05/16 05:44:31;;;;;;;;;22.33;20.33;;;;;21.24;86.22;100702.72;4873025;29;45491;-86
2022/05/16 05:46:59;;;;;;;;;21.00;20.33;;;;;21.42;86.24;100728.31;4875687;29;45848;-85
2022/05/16 05:49:25;;;;;;;;;24.33;22.67;;;;;;;;4876223;29;45529;-86
2022/05/16 05:51:50;;;;;;;;;16.00;16.00;;;;;21.61;85.55;100767.41;4872940;29;45476;-87
2022/05/16 05:54:16;;;;;;;;;21.00;20.00;;;;;21.60;85.43;100757.53;4874460;29;45300;-86
2022/05/16 05:56:41;;;;;;;;;23.67;23.00;;;;;21.70;84.67;100760.84;4875103;29;45180;-85
2022/05/16 05:59:46;;;;;;;;;21.33;19.00;;;;;21.98;83.55;100777.97;4875033;29;47062;-85
2022/05/16 06:02:11;;;;;;;;;22.67;20.67;;;;;21.86;83.11;100782.91;4877896;29;44698;-85
2022/05/16 06:04:38;;;;;;;;;23.00;21.00;;;;;21.96;83.45;100800.63;4878900;29;45334;-86
2022/05/16 06:07:04;;;;;;;;;26.00;23.00;;;;;21.75;83.07;100767.88;4876314;29;44855;-86
2022/05/16 06:09:30;;;;;;;;;19.00;17.00;;;;;21.65;83.18;100758.25;4860449;29;47237;-86
2022/05/16 06:11:58;;;;;;;;;19.00;18.00;;;;;21.88;82.43;100813.53;4877183;29;45503;-86
2022/05/16 06:14:28;;;;;;;;;22.00;21.00;;;;;21.86;83.11;100818.09;4874455;29;45437;-86
2022/05/16 06:16:54;;;;;;;;;22.67;22.33;;;;;21.63;82.72;100806.13;4874833;29;45315;-85
2022/05/16 06:19:25;;;;;;;;;19.67;18.67;;;;;21.44;82.11;100786.88;4875376;29;47037;-86
2022/05/16 06:21:57;;;;;;;;;20.00;18.33;;;;;21.83;81.83;100839.84;4861925;29;45512;-83
2022/05/16 06:27:17;;;;;;;;;21.67;20.67;;;;;21.68;81.84;100782.53;4876957;29;44796;-84
2022/05/16 06:29:43;;;;;;;;;21.33;20.00;;;;;21.93;81.17;100831.38;4893165;29;46809;-84
2022/05/16 06:32:13;;;;;;;;;22.00;21.67;;;;;21.83;81.21;100796.53;4889332;29;45843;-84
2022/05/16 06:34:39;;;;;;;;;23.00;21.00;;;;;21.98;80.72;100824.00;4873655;29;44864;-84
2022/05/16 06:37:05;;;;;;;;;34.00;32.00;;;;;21.86;80.87;100810.84;4875815;29;45366;-84
2022/05/16 06:39:31;;;;;;;;;23.33;22.00;;;;;21.95;80.44;100820.50;4873834;29;47255;-85
2022/05/16 06:41:58;;;;;;;;;24.33;24.33;;;;;22.00;80.39;100823.06;4876945;29;45359;-83
2022/05/16 06:44:24;;;;;;;;;18.33;18.33;;;;;22.08;79.98;100848.97;4878572;29;45485;-85
2022/05/16 06:46:49;;;;;;;;;20.67;20.67;;;;;22.14;79.16;100851.47;4879730;29;44836;-86
2022/05/16 06:49:15;;;;;;;;;22.33;20.67;;;;;22.24;78.78;100879.19;4896183;29;46619;-85
2022/05/16 06:51:41;;;;;;;;;22.00;19.67;;;;;22.20;78.80;100861.25;4897993;29;45407;-85
2022/05/16 06:54:09;;;;;;;;;17.33;16.67;;;;;22.30;77.24;100879.00;4897683;29;44741;-85
2022/05/16 06:56:36;;;;;;;;;16.00;15.67;;;;;22.23;77.43;100892.75;4897941;29;44945;-84
2022/05/16 06:59:02;;;;;;;;;18.67;18.33;;;;;21.95;77.54;100859.28;4897962;29;47403;-85
2022/05/16 07:01:58;;;;;;;;;19.67;17.67;;;;;21.94;77.46;100859.34;4898463;29;44771;-85
2022/05/16 07:04:26;;;;;;;;;15.33;14.33;;;;;22.01;77.14;100851.91;4896609;29;45041;-84
2022/05/16 07:06:52;;;;;;;;;17.33;17.33;;;;;22.23;77.34;100879.22;4892651;29;45263;-85
2022/05/16 07:09:19;;;;;;;;;17.67;17.00;;;;;22.40;76.78;100892.22;4893135;29;47755;-84
2022/05/16 07:12:20;;;;;;;;;16.67;16.00;;;;;22.48;76.13;100910.03;4878380;29;45725;-85
2022/05/16 07:15:19;;;;;;;;;18.00;17.00;;;;;22.39;75.44;100880.50;4879473;29;45354;-84
2022/05/16 07:21:18;;;;;;;;;;;;;;;;;;;;;
2022/05/16 07:24:28;;;;;;;;;11.67;11.67;;;;;22.87;73.60;100919.59;4818545;29;44737;-87
2022/05/16 07:44:12;;;;;;;;;14.00;13.00;;;;;22.84;71.78;100936.84;4515462;26;45961;-83
2022/05/16 07:46:38;;;;;;;;;13.33;13.33;;;;;22.56;71.08;100917.88;4878918;29;45610;-85
2022/05/16 07:49:07;;;;;;;;;13.67;12.67;;;;;22.48;71.38;100901.91;4879124;29;45525;-83
2022/05/16 07:51:34;;;;;;;;;17.67;16.67;;;;;22.73;71.99;100955.31;4893472;29;44837;-84
2022/05/16 07:54:04;;;;;;;;;12.00;12.00;;;;;22.89;71.60;100958.41;4880528;29;45520;-84
2022/05/16 07:56:30;;;;;;;;;14.00;14.00;;;;;22.84;71.41;100947.69;4863949;29;45374;-84
2022/05/16 07:58:55;;;;;;;;;11.67;11.33;;;;;22.74;71.25;100919.09;4876453;29;45464;-86
2022/05/16 08:01:21;;;;;;;;;13.67;11.67;;;;;23.01;70.30;100955.28;4877856;29;44826;-86
2022/05/16 08:03:47;;;;;;;;;14.00;13.67;;;;;22.87;70.14;100936.75;4860210;29;46339;-86
2022/05/16 08:06:35;;;;;;;;;14.33;13.33;;;;;23.11;69.93;100970.31;4879461;29;44808;-87
2022/05/16 08:11:46;;;;;;;;;15.33;13.00;;;;;23.27;69.62;100961.63;4877701;29;45366;-85
2022/05/16 08:14:18;;;;;;;;;12.67;12.67;;;;;23.49;69.56;100983.47;4877648;29;48056;-82
2022/05/16 08:16:45;;;;;;;;;12.33;11.67;;;;;23.54;69.06;100981.50;4878621;29;46463;-87
2022/05/16 08:19:29;;;;;;;;;13.00;12.00;;;;;23.56;68.58;100969.63;4900858;29;45577;-86
2022/05/16 08:22:02;;;;;;;;;11.67;11.33;;;;;23.50;67.55;100958.13;4911742;29;45828;-85
2022/05/16 08:24:46;;;;;;;;;;;;;;;;;;;;;
2022/05/16 08:28:22;;;;;;;;;;;;;;;;;;;;;
2022/05/16 08:31:53;;;;;;;;;7.00;5.33;;;;;23.93;66.65;100995.44;4833515;29;68156;-86
2022/05/16 08:34:29;;;;;;;;;12.67;12.67;;;;;23.88;65.71;100993.88;4817808;29;45323;-84
2022/05/16 08:40:15;;;;;;;;;12.33;12.33;;;;;23.88;65.74;100970.31;4816348;29;44805;-85
2022/05/16 08:42:59;;;;;;;;;;;;;;;;;;;;;
2022/05/16 08:45:46;;;;;;;;;10.67;10.67;;;;;24.15;65.54;101000.97;4819356;29;64444;-85
2022/05/16 08:48:36;;;;;;;;;10.67;10.67;;;;;24.06;65.37;100968.72;4819378;29;45452;-86
2022/05/16 08:54:45;;;;;;;;;12.00;12.00;;;;;24.32;64.55;101016.63;4813332;29;45549;-84
2022/05/16 08:57:18;;;;;;;;;10.33;10.33;;;;;24.03;63.69;100960.69;4787512;29;45577;-87
2022/05/16 09:00:16;;;;;;;;;11.00;11.00;;;;;24.21;64.30;100998.97;4801116;29;47293;-84
2022/05/16 09:02:55;;;;;;;;;11.33;10.67;;;;;24.25;64.90;101023.25;4812500;29;45640;-83
2022/05/16 09:06:11;;;;;;;;;12.00;11.00;;;;;24.21;63.96;101037.00;4816879;29;45500;-86
2022/05/16 09:09:07;;;;;;;;;12.00;11.67;;;;;23.97;64.27;101012.53;4788345;29;45810;-84
2022/05/16 09:11:54;;;;;;;;;8.00;7.00;;;;;24.04;64.40;101029.50;4798187;29;46733;-85
2022/05/16 09:15:18;;;;;;;;;11.67;11.67;;;;;23.98;65.03;101036.06;4803286;29;45402;-85
2022/05/16 09:18:14;;;;;;;;;10.33;10.33;;;;;23.80;64.84;101042.16;4812061;29;45505;-84
2022/05/16 09:20:58;;;;;;;;;10.33;9.67;;;;;23.56;64.65;101015.78;4809528;29;44980;-84
2022/05/16 09:24:04;;;;;;;;;12.00;12.00;;;;;23.73;65.05;101042.34;4794765;29;45493;-85
2022/05/16 09:27:02;;;;;;;;;13.00;11.67;;;;;23.80;64.67;101036.72;4811658;29;45523;-84
2022/05/16 09:29:32;;;;;;;;;12.33;12.33;;;;;24.06;64.53;101054.78;4805534;29;45605;-86
2022/05/16 09:32:30;;;;;;;;;9.33;8.00;;;;;23.98;63.76;101006.16;4821785;29;45345;-87
2022/05/16 09:34:56;;;;;;;;;11.67;10.33;;;;;24.19;63.21;101036.19;4805668;29;45467;-86
2022/05/16 09:37:28;;;;;;;;;12.00;10.33;;;;;24.27;63.64;101047.66;4805622;29;45595;-85
2022/05/16 09:39:55;;;;;;;;;10.67;10.67;;;;;24.13;63.23;101024.59;4806426;29;44868;-84
2022/05/16 09:42:27;;;;;;;;;12.67;11.67;;;;;24.32;63.03;101067.41;4820646;29;45533;-84
2022/05/16 09:45:12;;;;;;;;;9.00;8.00;;;;;24.15;62.95;101036.28;4875739;29;46863;-86
2022/05/16 09:48:03;;;;;;;;;10.33;10.00;;;;;24.13;62.24;101031.88;4879032;29;44902;-87
2022/05/16 09:50:32;;;;;;;;;14.33;12.00;;;;;24.14;62.05;101052.69;4879544;29;44679;-87
2022/05/16 09:52:59;;;;;;;;;10.67;10.67;;;;;24.22;62.31;101080.44;4860997;29;45424;-85
2022/05/16 09:55:53;;;;;;;;;21.67;20.00;;;;;24.21;62.26;101075.94;4880393;29;45379;-86
2022/05/16 09:58:33;;;;;;;;;16.00;14.00;;;;;24.24;62.20;101074.94;4894924;29;44846;-87
2022/05/16 10:04:24;;;;;;;;;10.00;9.00;;;;;24.06;60.80;101060.22;4845096;29;45976;-87
2022/05/16 10:07:08;;;;;;;;;11.00;10.67;;;;;24.06;62.01;101052.97;4845060;29;45346;-85
2022/05/16 10:09:43;;;;;;;;;11.00;10.33;;;;;24.30;61.81;101072.00;4827035;29;44787;-86
2022/05/16 10:12:12;;;;;;;;;13.00;13.00;;;;;24.46;61.79;101078.63;4827250;29;45323;-86
2022/05/16 10:14:41;;;;;;;;;10.67;9.33;;;;;24.19;61.51;101026.19;4827666;29;45880;-87
2022/05/16 10:17:11;;;;;;;;;10.00;9.67;;;;;24.60;61.07;101055.47;4840239;29;45445;-86
2022/05/16 10:19:40;;;;;;;;;7.33;7.00;;;;;24.70;60.18;101046.91;4843544;29;44883;-86
2022/05/16 10:22:15;;;;;;;;;8.67;8.67;;;;;25.04;59.38;101086.34;4858703;29;44924;-85
2022/05/16 10:24:52;;;;;;;;;8.33;8.00;;;;;25.09;59.46;101046.22;4845648;29;45457;-84
2022/05/16 10:28:08;;;;;;;;;19.33;18.67;;;;;25.48;57.91;101071.88;4850859;29;45590;-85
2022/05/16 10:33:24;;;;;;;;;8.67;8.33;;;;;25.57;57.55;101065.13;4827943;29;44828;-85
2022/05/16 10:33:29;;;;;;;;;8.67;8.67;;;;;25.78;57.22;101077.81;4831328;29;45456;-87
2022/05/16 10:35:59;;;;;;;;;6.67;6.67;;;;;25.81;56.74;101080.38;4851805;29;45404;-86
2022/05/16 10:38:31;;;;;;;;;9.00;8.00;;;;;25.79;56.38;101048.72;4848044;29;45492;-86
2022/05/16 10:45:10;;;;;;;;;9.33;9.33;;;;;26.05;55.00;101067.53;4880386;29;44912;-87
2022/05/16 10:48:05;;;;;;;;;7.67;7.67;;;;;26.04;53.24;101070.34;4890442;29;45342;-87
2022/05/16 10:50:49;;;;;;;;;11.67;10.00;;;;;25.91;53.57;101065.44;4861077;29;45553;-85
2022/05/16 10:53:45;;;;;;;;;10.67;9.00;;;;;25.77;53.97;101061.53;4842042;29;45344;-86
2022/05/16 10:56:36;;;;;;;;;6.67;6.67;;;;;25.70;53.60;101078.16;4863447;29;45486;-86
2022/05/16 10:59:07;;;;;;;;;5.67;5.00;;;;;25.43;54.59;101063.91;4890427;29;45376;-86
2022/05/16 11:02:03;;;;;;;;;7.67;7.67;;;;;25.65;54.42;101077.47;4867066;29;46536;-87
2022/05/16 11:04:34;;;;;;;;;6.00;5.00;;;;;25.75;54.01;101081.56;4861052;29;45494;-85
2022/05/16 11:07:48;;;;;;;;;;;;;;;;;;;;;
2022/05/16 11:11:02;;;;;;;;;11.67;7.67;;;;;25.88;53.04;101083.75;4848600;29;45373;-88
2022/05/16 11:13:53;;;;;;;;;6.00;6.00;;;;;25.90;52.15;101081.88;4857609;29;46860;-87
2022/05/16 11:16:24;;;;;;;;;4.00;4.00;;;;;25.80;51.34;101066.84;4856153;29;44945;-85
2022/05/16 11:19:18;;;;;;;;;5.00;5.00;;;;;25.78;51.29;101068.78;4855385;29;45344;-84
2022/05/16 11:22:03;;;;;;;;;5.33;5.00;;;;;25.69;51.48;101086.38;4851959;29;45308;-87
2022/05/16 11:28:24;;;;;;;;;5.00;5.00;;;;;25.86;51.12;101082.94;4863415;29;45532;-85
2022/05/16 11:31:08;;;;;;;;;5.00;5.00;;;;;25.96;51.08;101062.53;4848189;29;44851;-85
2022/05/16 11:33:54;;;;;;;;;6.00;6.00;;;;;26.05;51.17;101081.16;4842752;29;45445;-83
2022/05/16 11:36:45;;;;;;;;;5.67;5.33;;;;;26.10;50.62;101080.97;4870656;29;47055;-84
2022/05/16 11:42:48;;;;;;;;;6.67;6.67;;;;;26.10;51.14;101067.34;4857918;29;44795;-84
2022/05/16 11:45:51;;;;;;;;;8.33;8.33;;;;;26.19;50.37;101052.41;4875494;29;45348;-85
2022/05/16 11:48:31;;;;;;;;;5.00;4.00;;;;;26.20;49.52;101062.34;4904378;29;45700;-81
2022/05/16 11:51:38;;;;;;;;;5.67;5.67;;;;;26.31;48.70;101070.91;4873539;29;45661;-86
2022/05/16 11:54:45;;;;;;;;;7.33;6.00;;;;;26.31;47.89;101054.56;4897442;29;44776;-85
2022/05/16 12:01:50;;;;;;;;;;;;;;;;;;;;;
2022/05/16 12:05:30;;;;;;;;;;;;;;;;;;;;;
2022/05/16 12:14:43;;;;;;;;;4.00;4.00;;;;;26.84;46.32;101037.47;5003093;23;45924;-87
2022/05/16 12:17:27;;;;;;;;;9.33;9.33;;;;;27.08;45.86;101029.91;4856149;29;45476;-86
2022/05/16 12:19:53;;;;;;;;;4.33;4.33;;;;;27.21;45.60;101026.56;4852351;29;45966;-84
2022/05/16 12:23:10;;;;;;;;;4.33;4.33;;;;;27.70;44.98;101046.81;4856720;29;44932;-86
2022/05/16 12:53:54;;;;;;;;;;;;;;;;;;;;;
2022/05/16 13:07:10;;;;;;;;;3.67;3.67;;;;;28.08;41.32;101057.56;1179944;26;46078;-85
2022/05/16 13:10:30;;;;;;;;;6.67;6.67;;;;;27.49;42.19;101013.31;4880447;29;45500;-85
2022/05/16 13:17:06;;;;;;;;;3.67;3.67;;;;;27.48;42.00;101059.81;4788974;29;45447;-85
2022/05/16 13:20:06;;;;;;;;;4.00;3.33;;;;;27.25;42.04;101012.72;4791671;29;45456;-85
2022/05/16 13:34:06;;;;;;;;;;;;;;;;;;;;;
2022/05/16 13:37:16;;;;;;;;;7.67;7.67;;;;;28.08;41.07;101029.34;4775118;29;64559;-88
2022/05/16 13:42:47;;;;;;;;;2.67;2.67;;;;;28.37;40.17;101022.25;4820926;29;44923;-85
2022/05/16 13:46:33;;;;;;;;;2.00;2.00;;;;;28.70;39.58;101038.66;4818293;29;45299;-87
2022/05/16 13:49:40;;;;;;;;;3.00;3.00;;;;;29.01;40.47;101036.00;4809510;29;45655;-86
2022/05/16 13:55:50;;;;;;;;;3.33;3.33;;;;;32.93;35.00;100978.75;4800456;29;45395;-85
2022/05/16 13:58:54;;;;;;;;;4.00;3.00;;;;;35.95;31.45;101016.56;4801350;29;45240;-86
2022/05/16 14:02:26;;;;;;;;;;;;;;;;;;;;;
2022/05/16 14:04:57;;;;;;;;;1.33;1.33;;;;;33.01;31.29;100992.81;4799465;29;73891;-86
2022/05/16 14:07:26;;;;;;;;;1.67;1.67;;;;;31.75;31.58;101027.66;4808243;29;44954;-86
2022/05/16 14:10:15;;;;;;;;;1.00;1.00;;;;;30.80;33.64;101032.22;4810443;29;44891;-86
2022/05/16 14:13:11;;;;;;;;;3.00;2.33;;;;;30.72;33.82;101004.38;4840155;29;45510;-86
2022/05/16 14:19:43;;;;;;;;;3.00;3.00;;;;;31.96;33.26;101039.00;4771959;29;44828;-88
2022/05/16 14:22:48;;;;;;;;;3.00;2.00;;;;;35.09;27.51;101035.06;4764701;29;44885;-86
2022/05/16 14:25:44;;;;;;;;;5.33;5.33;;;;;37.39;28.64;101034.88;4751621;29;45510;-87
2022/05/16 14:36:34;;;;;;;;;2.00;2.00;;;;;37.94;24.42;101040.72;4754316;29;45654;-88
2022/05/16 14:39:52;;;;;;;;;1.00;1.00;;;;;36.31;26.80;101042.00;4758073;29;44995;-85
2022/05/16 14:42:24;;;;;;;;;8.00;8.00;;;;;38.31;26.21;101026.00;4755158;29;45522;-86
2022/05/16 14:48:16;;;;;;;;;2.00;2.00;;;;;39.56;23.02;101003.13;4745744;30;45466;-87
2022/05/16 14:51:43;;;;;;;;;2.00;0.67;;;;;37.71;24.18;101033.72;4731383;30;45636;-87